createdAt,value
2018-10-17T00:01:43.563Z,36.20
2018-10-17T00:04:14.779Z,35.80
2018-10-17T00:06:45.024Z,35.50
2018-10-17T00:09:15.836Z,36.97
2018-10-17T00:11:46.604Z,35.90
2018-10-17T00:14:16.920Z,35.87
2018-10-17T00:16:47.012Z,34.70
2018-10-17T00:19:18.397Z,33.80
2018-10-17T00:21:50.154Z,35.20
2018-10-17T00:24:20.291Z,32.43
2018-10-17T00:26:50.457Z,30.57
2018-10-17T00:29:20.798Z,31.50
2018-10-17T00:31:51.515Z,31.73
2018-10-17T00:34:23.297Z,29.50
2018-10-17T00:36:53.390Z,26.50
2018-10-17T00:39:24.488Z,26.70
2018-10-17T00:41:54.986Z,26.13
2018-10-17T00:44:25.256Z,27.80
2018-10-17T00:46:55.496Z,27.80
2018-10-17T00:49:26.582Z,29.43
2018-10-17T00:51:56.521Z,31.33
2018-10-17T00:54:27.693Z,31.33
2018-10-17T00:56:58.115Z,31.10
2018-10-17T00:59:29.752Z,34.10
2018-10-17T01:02:00.971Z,33.70
2018-10-17T01:04:31.097Z,34.13
2018-10-17T01:07:01.182Z,35.30
2018-10-17T01:09:31.770Z,35.53
2018-10-17T01:12:01.973Z,34.43
2018-10-17T01:14:32.929Z,35.70
2018-10-17T01:17:03.097Z,33.20
2018-10-17T01:19:33.380Z,34.83
2018-10-17T01:22:03.702Z,35.93
2018-10-17T01:24:34.831Z,33.80
2018-10-17T01:27:05.540Z,35.63
2018-10-17T01:29:35.751Z,38.23
2018-10-17T01:32:07.818Z,40.73
2018-10-17T01:34:38.472Z,39.60
2018-10-17T01:37:08.677Z,41.40
2018-10-17T01:39:39.355Z,42.90
2018-10-17T01:42:09.674Z,42.90
2018-10-17T01:44:40.107Z,40.23
2018-10-17T01:47:10.448Z,42.83
2018-10-17T01:49:41.206Z,40.13
2018-10-17T01:52:11.258Z,38.00
2018-10-17T01:54:41.925Z,39.93
2018-10-17T01:57:12.584Z,37.40
2018-10-17T01:59:43.687Z,40.63
2018-10-17T02:02:13.920Z,41.43
2018-10-17T02:04:44.351Z,40.77
2018-10-17T02:07:14.966Z,46.23
2018-10-17T02:09:45.326Z,46.83
2018-10-17T02:12:16.353Z,47.60
2018-10-17T02:14:46.436Z,47.60
2018-10-17T02:17:16.757Z,49.67
2018-10-17T02:19:46.904Z,48.77
2018-10-17T02:22:17.454Z,49.53
2018-10-17T02:24:47.759Z,46.60
2018-10-17T02:27:17.973Z,47.33
2018-10-17T02:29:49.264Z,49.00
2018-10-17T02:32:19.488Z,51.77
2018-10-17T02:34:55.984Z,50.27
2018-10-17T02:37:26.935Z,51.43
2018-10-17T02:39:57.101Z,52.70
2018-10-17T02:42:27.372Z,51.77
2018-10-17T02:44:57.840Z,49.93
2018-10-17T02:47:28.447Z,50.83
2018-10-17T02:49:58.751Z,48.20
2018-10-17T02:52:28.795Z,46.33
2018-10-17T02:54:59.558Z,43.20
2018-10-17T02:57:30.519Z,43.90
2018-10-17T03:00:01.382Z,43.70
2018-10-17T03:02:32.415Z,41.80
2018-10-17T03:05:02.856Z,42.90
2018-10-17T03:07:33.877Z,46.20
2018-10-17T03:10:04.219Z,43.23
2018-10-17T03:12:34.519Z,41.77
2018-10-17T03:15:05.192Z,38.67
2018-10-17T03:17:35.446Z,43.13
2018-10-17T03:20:07.070Z,44.53
2018-10-17T03:22:37.791Z,41.93
2018-10-17T03:25:09.044Z,48.20
2018-10-17T03:27:40.233Z,49.20
2018-10-17T03:30:11.312Z,53.77
2018-10-17T03:32:42.227Z,53.03
2018-10-17T03:35:13.039Z,50.40
2018-10-17T03:37:43.397Z,50.87
2018-10-17T03:40:14.223Z,51.10
2018-10-17T03:42:45.393Z,50.67
2018-10-17T03:45:17.112Z,51.23
2018-10-17T03:47:48.071Z,50.90
2018-10-17T03:50:18.293Z,49.83
2018-10-17T03:52:48.854Z,49.67
2018-10-17T03:55:19.251Z,50.30
2018-10-17T03:57:49.238Z,51.27
2018-10-17T04:00:19.493Z,48.43
2018-10-17T04:02:49.907Z,45.60
2018-10-17T04:05:21.823Z,42.87
2018-10-17T04:07:52.209Z,43.37
2018-10-17T04:10:22.433Z,44.93
2018-10-17T04:12:52.534Z,42.93
2018-10-17T04:15:22.786Z,43.27
2018-10-17T04:17:53.570Z,40.50
2018-10-17T04:20:23.954Z,42.37
2018-10-17T04:22:56.848Z,45.33
2018-10-17T04:25:27.190Z,44.87
2018-10-17T04:27:57.753Z,47.27
2018-10-17T04:30:28.105Z,46.70
2018-10-17T04:32:58.364Z,44.90
2018-10-17T04:35:30.164Z,53.73
2018-10-17T04:38:00.282Z,49.93
2018-10-17T04:40:30.861Z,47.83
2018-10-17T04:43:02.043Z,49.13
2018-10-17T04:45:32.168Z,48.67
2018-10-17T04:48:03.740Z,47.50
2018-10-17T04:50:33.806Z,46.43
2018-10-17T04:53:03.981Z,48.17
2018-10-17T04:55:34.602Z,46.27
2018-10-17T04:58:04.915Z,50.20
2018-10-17T05:00:35.079Z,45.53
2018-10-17T05:03:05.487Z,39.50
2018-10-17T05:05:35.740Z,41.97
2018-10-17T05:08:07.111Z,44.90
2018-10-17T05:10:37.219Z,45.07
2018-10-17T05:13:07.931Z,44.40
2018-10-17T05:15:38.305Z,42.20
2018-10-17T05:18:09.277Z,42.83
2018-10-17T05:20:39.453Z,43.97
2018-10-17T05:23:09.648Z,45.77
2018-10-17T05:25:40.039Z,45.20
2018-10-17T05:28:10.588Z,46.37
2018-10-17T05:30:41.279Z,44.77
2018-10-17T05:33:11.382Z,44.67
2018-10-17T05:35:41.585Z,46.03
2018-10-17T05:38:12.695Z,46.00
2018-10-17T05:40:44.286Z,48.67
2018-10-17T05:43:14.740Z,47.80
2018-10-17T05:45:45.653Z,45.33
2018-10-17T05:48:16.130Z,44.10
2018-10-17T05:50:46.417Z,43.63
2018-10-17T05:53:16.843Z,41.77
2018-10-17T05:55:47.229Z,39.97
2018-10-17T05:58:17.717Z,37.27
2018-10-17T06:00:48.192Z,38.13
2018-10-17T06:03:18.555Z,37.97
2018-10-17T06:05:48.925Z,43.43
2018-10-17T06:08:19.493Z,43.53
2018-10-17T06:10:49.953Z,42.40
2018-10-17T06:13:20.260Z,42.07
2018-10-17T06:15:51.547Z,43.20
2018-10-17T06:18:23.091Z,43.40
2018-10-17T06:20:53.670Z,47.50
2018-10-17T06:23:25.206Z,48.13
2018-10-17T06:25:55.429Z,48.73
2018-10-17T06:28:26.817Z,53.97
2018-10-17T06:30:57.060Z,56.03
2018-10-17T06:33:27.632Z,59.23
2018-10-17T06:35:58.442Z,52.90
2018-10-17T06:38:29.234Z,54.13
2018-10-17T06:40:59.842Z,57.23
2018-10-17T06:43:30.276Z,58.87
2018-10-17T06:46:00.912Z,58.00
2018-10-17T06:48:31.321Z,61.57
2018-10-17T06:51:01.737Z,58.13
2018-10-17T06:53:32.144Z,59.00
2018-10-17T06:56:02.904Z,55.77
2018-10-17T06:58:34.222Z,60.93
2018-10-17T07:01:04.470Z,54.53
2018-10-17T07:03:35.028Z,57.63
2018-10-17T07:06:05.953Z,58.50
2018-10-17T07:08:36.569Z,57.10
2018-10-17T07:11:07.324Z,54.53
2018-10-17T07:13:37.727Z,54.63
2018-10-17T07:16:09.259Z,55.37
2018-10-17T07:18:40.176Z,52.63
2018-10-17T07:21:11.437Z,52.33
2018-10-17T07:23:41.826Z,51.73
2018-10-17T07:26:12.297Z,53.00
2018-10-17T07:28:43.565Z,51.47
2018-10-17T07:31:14.883Z,52.53
2018-10-17T07:33:45.350Z,51.97
2018-10-17T07:36:16.530Z,47.90
2018-10-17T07:38:46.465Z,45.63
2018-10-17T07:41:17.216Z,45.30
2018-10-17T07:43:47.788Z,45.77
2018-10-17T07:46:18.425Z,43.53
2018-10-17T07:48:48.787Z,46.83
2018-10-17T07:51:19.798Z,47.50
2018-10-17T07:53:50.180Z,46.00
2018-10-17T07:56:20.270Z,43.10
2018-10-17T07:58:51.672Z,44.17
2018-10-17T08:01:21.991Z,43.57
2018-10-17T08:03:52.495Z,45.57
2018-10-17T08:06:22.600Z,45.17
2018-10-17T08:08:53.003Z,44.97
2018-10-17T08:11:23.829Z,44.23
2018-10-17T08:13:54.906Z,43.07
2018-10-17T08:16:25.703Z,39.73
2018-10-17T08:18:56.073Z,39.43
2018-10-17T08:21:26.556Z,38.10
2018-10-17T08:23:57.226Z,38.33
2018-10-17T08:26:28.653Z,38.10
2018-10-17T08:28:59.520Z,37.53
2018-10-17T08:31:29.780Z,38.50
2018-10-17T08:34:01.561Z,34.67
2018-10-17T08:36:32.377Z,35.10
2018-10-17T08:39:02.955Z,34.67
2018-10-17T08:41:33.453Z,32.23
2018-10-17T08:44:05.313Z,31.63
2018-10-17T08:46:35.753Z,31.63
2018-10-17T08:49:06.552Z,30.90
2018-10-17T08:51:37.468Z,29.73
2018-10-17T08:54:08.813Z,30.10
2018-10-17T08:56:46.561Z,28.63
2018-10-17T08:59:17.696Z,28.03
2018-10-17T09:01:48.286Z,27.57
2018-10-17T09:04:18.631Z,28.37
2018-10-17T09:06:49.880Z,27.67
2018-10-17T09:09:20.282Z,25.07
2018-10-17T09:11:51.125Z,25.83
2018-10-17T09:14:21.625Z,26.87
2018-10-17T09:16:52.820Z,27.17
2018-10-17T09:19:24.407Z,25.07
2018-10-17T09:21:55.417Z,25.80
2018-10-17T09:24:26.265Z,24.73
2018-10-17T09:26:56.380Z,25.40
2018-10-17T09:29:27.158Z,23.77
2018-10-17T09:31:59.504Z,24.00
2018-10-17T09:34:30.914Z,22.73
2018-10-17T09:37:01.654Z,22.80
2018-10-17T09:39:32.348Z,20.27
2018-10-17T09:42:02.750Z,19.27
2018-10-17T09:44:33.222Z,19.50
2018-10-17T09:47:04.747Z,18.60
2018-10-17T09:49:35.120Z,16.27
2018-10-17T09:52:05.765Z,17.00
2018-10-17T09:54:37.537Z,18.10
2018-10-17T09:57:08.221Z,17.63
2018-10-17T09:59:38.519Z,17.53
2018-10-17T10:02:10.420Z,16.23
2018-10-17T10:04:40.884Z,15.80
2018-10-17T10:07:12.068Z,15.47
2018-10-17T10:09:42.338Z,15.43
2018-10-17T10:12:12.754Z,14.07
2018-10-17T10:14:43.865Z,14.00
2018-10-17T10:17:14.578Z,14.17
2018-10-17T10:19:44.820Z,13.93
2018-10-17T10:22:16.203Z,14.13
2018-10-17T10:24:46.809Z,15.13
2018-10-17T10:27:17.213Z,15.43
2018-10-17T10:29:48.480Z,15.03
2018-10-17T10:32:18.920Z,14.00
2018-10-17T10:34:49.289Z,13.63
2018-10-17T10:37:19.757Z,15.40
2018-10-17T10:39:50.240Z,15.30
2018-10-17T10:42:21.896Z,15.40
2018-10-17T10:44:52.366Z,14.83
2018-10-17T10:47:22.795Z,15.17
2018-10-17T10:49:53.219Z,14.80
2018-10-17T10:55:00.725Z,15.90
2018-10-17T10:57:31.219Z,14.83
2018-10-17T11:00:01.572Z,18.70
2018-10-17T11:02:32.178Z,19.00
2018-10-17T11:05:02.670Z,19.63
2018-10-17T11:07:32.762Z,19.43
2018-10-17T11:10:05.466Z,18.30
2018-10-17T11:12:35.956Z,19.70
2018-10-17T11:15:07.886Z,19.63
2018-10-17T11:17:38.447Z,20.57
2018-10-17T11:20:09.260Z,20.13
2018-10-17T11:22:39.730Z,19.43
2018-10-17T11:25:10.272Z,17.37
2018-10-17T11:27:41.659Z,18.07
2018-10-17T11:30:12.348Z,18.70
2018-10-17T11:32:43.508Z,19.30
2018-10-17T11:35:14.532Z,16.73
2018-10-17T11:37:45.278Z,19.33
2018-10-17T11:40:16.238Z,19.53
2018-10-17T11:42:47.632Z,21.73
2018-10-17T11:45:18.873Z,19.30
2018-10-17T11:47:49.401Z,18.93
2018-10-17T11:50:19.560Z,21.17
2018-10-17T11:52:50.153Z,22.70
2018-10-17T11:55:20.590Z,20.40
2018-10-17T11:57:51.063Z,19.87
2018-10-17T12:00:21.788Z,17.70
2018-10-17T12:02:52.576Z,18.53
2018-10-17T12:05:24.129Z,18.27
2018-10-17T12:07:54.409Z,18.50
2018-10-17T12:10:27.079Z,18.97
2018-10-17T12:12:58.453Z,18.50
2018-10-17T12:15:28.863Z,19.03
2018-10-17T12:17:59.275Z,19.30
2018-10-17T12:20:29.541Z,18.97
2018-10-17T12:23:00.397Z,18.80
2018-10-17T12:25:57.927Z,18.50
2018-10-17T12:28:28.586Z,19.27
2018-10-17T12:30:59.547Z,19.60
2018-10-17T12:33:29.873Z,18.83
2018-10-17T12:36:00.968Z,19.00
2018-10-17T12:38:31.969Z,17.97
2018-10-17T12:41:03.104Z,20.07
2018-10-17T12:43:33.156Z,17.07
2018-10-17T12:46:03.765Z,10.97
2018-10-17T12:48:34.774Z,10.17
2018-10-17T12:51:05.075Z,10.80
2018-10-17T12:53:36.200Z,10.13
2018-10-17T12:56:06.674Z,11.10
2018-10-17T12:58:36.824Z,10.77
2018-10-17T13:01:07.216Z,10.77
2018-10-17T13:03:38.266Z,10.17
2018-10-17T13:06:09.117Z,11.87
2018-10-17T13:08:40.405Z,11.73
2018-10-17T13:11:10.577Z,12.67
2018-10-17T13:13:40.979Z,12.30
2018-10-17T13:16:12.534Z,11.60
2018-10-17T13:18:43.566Z,10.83
2018-10-17T13:21:14.192Z,10.53
2018-10-17T13:23:44.570Z,10.10
2018-10-17T13:26:14.777Z,9.90
2018-10-17T13:28:45.518Z,10.17
2018-10-17T13:31:16.261Z,10.73
2018-10-17T13:33:46.774Z,10.10
2018-10-17T13:36:17.150Z,10.50
2018-10-17T13:38:47.287Z,10.33
2018-10-17T13:41:18.070Z,9.30
2018-10-17T13:43:48.688Z,8.37
2018-10-17T13:46:19.081Z,8.37
2018-10-17T13:48:49.535Z,8.80
2018-10-17T13:51:19.729Z,9.20
2018-10-17T13:53:50.581Z,8.70
2018-10-17T13:56:21.038Z,8.10
2018-10-17T13:58:52.243Z,7.80
2018-10-17T14:01:22.606Z,7.10
2018-10-17T14:03:53.375Z,7.10
2018-10-17T14:06:25.285Z,7.07
2018-10-17T14:08:56.440Z,6.80
2018-10-17T14:11:26.965Z,7.00
2018-10-17T14:13:56.988Z,6.77
2018-10-17T14:16:28.052Z,6.70
2018-10-17T14:18:58.219Z,6.70
2018-10-17T14:21:28.467Z,6.97
2018-10-17T14:23:59.405Z,6.53
2018-10-17T14:26:30.010Z,7.80
2018-10-17T14:29:01.087Z,7.27
2018-10-17T14:31:31.930Z,6.73
2018-10-17T14:34:02.159Z,6.70
2018-10-17T14:36:32.372Z,6.40
2018-10-17T14:39:03.115Z,6.57
2018-10-17T14:41:33.994Z,6.40
2018-10-17T14:44:04.799Z,6.50
2018-10-17T14:46:35.233Z,5.90
2018-10-17T14:49:06.072Z,5.47
2018-10-17T14:51:36.634Z,5.17
2018-10-17T14:54:08.216Z,4.97
2018-10-17T14:56:39.265Z,5.27
2018-10-17T14:59:09.638Z,6.27
2018-10-17T15:01:40.575Z,5.70
2018-10-17T15:04:12.396Z,4.10
2018-10-17T15:06:42.560Z,3.80
2018-10-17T15:09:13.149Z,4.30
2018-10-17T15:11:43.685Z,3.43
2018-10-17T15:14:14.063Z,3.90
2018-10-17T15:16:44.706Z,3.67
2018-10-17T15:19:15.320Z,3.40
2018-10-17T15:21:46.216Z,3.47
2018-10-17T15:24:31.959Z,3.40
2018-10-17T15:27:03.729Z,3.53
2018-10-17T15:29:34.621Z,3.70
2018-10-17T15:32:05.065Z,4.90
2018-10-17T15:34:35.652Z,4.70
2018-10-17T15:37:07.019Z,4.17
2018-10-17T15:39:37.448Z,4.30
2018-10-17T15:42:07.775Z,4.13
2018-10-17T15:44:38.447Z,3.90
2018-10-17T15:47:09.386Z,4.20
2018-10-17T15:49:40.268Z,4.50
2018-10-17T15:52:11.126Z,5.30
2018-10-17T15:54:41.920Z,5.77
2018-10-17T15:57:12.747Z,4.83
2018-10-17T15:59:42.599Z,5.40
2018-10-17T16:02:13.024Z,5.57
2018-10-17T16:04:43.248Z,5.70
2018-10-17T16:07:13.416Z,5.57
2018-10-17T16:09:43.549Z,6.40
2018-10-17T16:12:13.669Z,5.37
2018-10-17T16:14:44.280Z,5.90
2018-10-17T16:17:14.951Z,6.33
2018-10-17T16:19:45.596Z,6.50
2018-10-17T16:22:16.061Z,5.50
2018-10-17T16:24:46.247Z,5.33
2018-10-17T16:27:16.436Z,5.30
2018-10-17T16:29:46.894Z,5.40
2018-10-17T16:32:17.075Z,5.50
2018-10-17T16:34:47.415Z,6.33
2018-10-17T16:37:17.398Z,6.00
2018-10-17T16:39:47.732Z,6.03
2018-10-17T16:42:17.738Z,6.43
2018-10-17T16:44:47.815Z,6.20
2018-10-17T16:47:19.293Z,6.70
2018-10-17T16:49:50.641Z,6.10
2018-10-17T16:52:20.830Z,6.67
2018-10-17T16:54:51.144Z,6.70
2018-10-17T16:57:21.516Z,7.33
2018-10-17T16:59:51.893Z,6.57
2018-10-17T17:02:22.364Z,6.73
2018-10-17T17:04:53.416Z,7.37
2018-10-17T17:07:24.005Z,7.50
2018-10-17T17:09:54.360Z,7.83
2018-10-17T17:12:25.715Z,8.47
2018-10-17T17:14:56.715Z,8.03
2018-10-17T17:17:29.508Z,7.93
2018-10-17T17:20:02.291Z,8.47
2018-10-17T17:22:32.486Z,8.70
2018-10-17T17:25:03.491Z,8.57
2018-10-17T17:27:34.904Z,9.63
2018-10-17T17:30:16.827Z,9.77
2018-10-17T17:32:47.919Z,9.60
2018-10-17T17:37:49.838Z,9.17
2018-10-17T17:40:20.433Z,9.70
2018-10-17T17:42:51.594Z,10.27
2018-10-17T17:45:22.104Z,10.00
2018-10-17T17:47:52.806Z,9.53
2018-10-17T17:50:23.208Z,11.23
2018-10-17T17:52:54.556Z,11.10
2018-10-17T17:55:25.058Z,12.13
2018-10-17T17:57:56.270Z,12.20
2018-10-17T18:00:27.594Z,11.83
2018-10-17T18:02:57.637Z,12.07
2018-10-17T18:05:28.189Z,11.57
2018-10-17T18:07:58.422Z,12.10
2018-10-17T18:10:28.783Z,10.97
2018-10-17T18:12:59.098Z,10.97
2018-10-17T18:15:30.090Z,11.00
2018-10-17T18:18:00.175Z,11.67
2018-10-17T18:20:31.158Z,12.20
2018-10-17T18:23:02.770Z,11.90
2018-10-17T18:25:33.298Z,13.13
2018-10-17T18:28:03.635Z,12.73
2018-10-17T18:30:35.292Z,11.80
2018-10-17T18:33:06.165Z,11.27
2018-10-17T18:35:36.447Z,11.93
2018-10-17T18:38:08.696Z,11.00
2018-10-17T18:40:39.744Z,11.57
2018-10-17T18:43:11.526Z,11.60
2018-10-17T18:45:41.883Z,10.90
2018-10-17T18:48:16.250Z,11.67
2018-10-17T18:50:47.615Z,11.30
2018-10-17T18:53:18.119Z,11.67
2018-10-17T18:55:48.475Z,12.07
2018-10-17T18:58:18.797Z,10.57
2018-10-17T19:00:49.107Z,11.23
2018-10-17T19:03:20.290Z,12.93
2018-10-17T19:05:50.608Z,12.70
2018-10-17T19:08:21.066Z,13.03
2018-10-17T19:10:51.254Z,14.00
2018-10-17T19:13:21.587Z,13.00
2018-10-17T19:15:51.771Z,12.73
2018-10-17T19:18:22.363Z,12.87
2018-10-17T19:20:52.823Z,13.20
2018-10-17T19:23:24.083Z,12.43
2018-10-17T19:25:54.992Z,12.07
2018-10-17T19:28:26.193Z,12.30
2018-10-17T19:30:57.121Z,11.73
2018-10-17T19:33:28.479Z,12.30
2018-10-17T19:36:00.795Z,11.23
2018-10-17T19:38:31.420Z,11.33
2018-10-17T19:41:02.990Z,12.73
2018-10-17T19:43:33.148Z,11.47
2018-10-17T19:46:04.839Z,12.30
2018-10-17T19:48:35.902Z,12.07
2018-10-17T19:51:06.730Z,12.83
2018-10-17T19:53:37.014Z,12.07
2018-10-17T19:56:07.295Z,12.30
2018-10-17T19:58:37.816Z,13.30
2018-10-17T20:01:08.045Z,13.10
2018-10-17T20:03:38.472Z,12.13
2018-10-17T20:06:08.738Z,10.20
2018-10-17T20:08:39.722Z,11.50
2018-10-17T20:11:10.551Z,11.40
2018-10-17T20:13:41.063Z,11.90
2018-10-17T20:16:12.524Z,11.37
2018-10-17T20:18:43.735Z,12.00
2018-10-17T20:21:14.284Z,11.83
2018-10-17T20:23:45.012Z,11.80
2018-10-17T20:26:15.503Z,14.30
2018-10-17T20:28:46.611Z,12.90
2018-10-17T20:31:17.412Z,12.63
2018-10-17T20:33:48.136Z,12.90
2018-10-17T20:36:18.561Z,12.03
2018-10-17T20:38:48.873Z,12.83
2018-10-17T20:41:19.643Z,11.60
2018-10-17T20:43:50.295Z,11.37
2018-10-17T20:46:20.560Z,11.57
2018-10-17T20:48:51.158Z,11.83
2018-10-17T20:51:21.478Z,13.80
2018-10-17T20:53:53.911Z,13.70
2018-10-17T20:56:25.938Z,13.23
2018-10-17T20:58:55.980Z,13.30
2018-10-17T21:01:27.232Z,14.80
2018-10-17T21:03:59.317Z,14.60
2018-10-17T21:06:29.652Z,14.67
2018-10-17T21:09:00.048Z,13.47
2018-10-17T21:11:30.381Z,12.70
2018-10-17T21:14:00.349Z,12.50
2018-10-17T21:16:30.645Z,13.13
2018-10-17T21:19:01.389Z,12.30
2018-10-17T21:21:31.725Z,13.67
2018-10-17T21:24:02.745Z,12.50
2018-10-17T21:26:32.960Z,13.77
2018-10-17T21:29:04.655Z,12.73
2018-10-17T21:31:34.880Z,12.97
2018-10-17T21:34:05.321Z,14.43
2018-10-17T21:36:35.649Z,13.57
2018-10-17T21:39:09.677Z,13.80
2018-10-17T21:41:39.883Z,13.83
2018-10-17T21:44:11.504Z,13.50
2018-10-17T21:46:41.386Z,14.37
2018-10-17T21:49:11.483Z,14.10
2018-10-17T21:51:42.098Z,15.23
2018-10-17T21:54:12.279Z,15.23
2018-10-17T21:56:42.458Z,15.63
2018-10-17T21:59:13.174Z,13.93
2018-10-17T22:01:43.435Z,14.83
2018-10-17T22:04:13.478Z,15.80
2018-10-17T22:06:44.018Z,14.53
2018-10-17T22:09:14.299Z,15.40
2018-10-17T22:11:44.578Z,15.73
2018-10-17T22:14:14.993Z,14.80
2018-10-17T22:16:50.181Z,14.03
2018-10-17T22:19:22.115Z,12.97
2018-10-17T22:21:53.596Z,11.90
2018-10-17T22:24:23.708Z,13.90
2018-10-17T22:26:53.992Z,14.57
2018-10-17T22:29:24.374Z,12.03
2018-10-17T22:31:54.794Z,10.10
2018-10-17T22:34:25.167Z,12.50
2018-10-17T22:36:55.461Z,12.93
2018-10-17T22:39:26.428Z,15.63
2018-10-17T22:41:56.869Z,16.47
2018-10-17T22:44:26.962Z,15.90
2018-10-17T22:46:57.088Z,16.73
2018-10-17T22:49:28.105Z,16.77
2018-10-17T22:51:58.333Z,16.23
2018-10-17T22:54:28.590Z,16.20
2018-10-17T22:56:58.926Z,15.50
2018-10-17T22:59:29.130Z,15.83
2018-10-17T23:01:59.624Z,17.00
2018-10-17T23:04:30.323Z,16.33
2018-10-17T23:07:00.682Z,15.13
2018-10-17T23:09:31.167Z,15.50
2018-10-17T23:12:01.536Z,15.60
2018-10-17T23:14:31.673Z,15.80
2018-10-17T23:17:02.060Z,15.03
2018-10-17T23:19:33.508Z,15.03
2018-10-17T23:22:04.350Z,15.17
2018-10-17T23:24:34.557Z,14.47
2018-10-17T23:27:05.829Z,14.07
2018-10-17T23:29:35.995Z,14.97
2018-10-17T23:32:06.731Z,13.93
2018-10-17T23:34:37.352Z,13.27
2018-10-17T23:37:07.496Z,13.50
2018-10-17T23:39:37.779Z,14.03
2018-10-17T23:42:08.235Z,14.00
2018-10-17T23:44:38.937Z,16.57
2018-10-17T23:47:09.871Z,17.93
2018-10-17T23:49:40.083Z,19.23
2018-10-17T23:52:10.003Z,18.70
2018-10-17T23:54:40.481Z,12.77
2018-10-17T23:57:10.849Z,10.07
2018-10-17T23:59:41.338Z,10.63
